sensor_id;sensor_type;location;lat;lon;timestamp;P1;durP1;ratioP1;P2;durP2;ratioP2
23015;SDS011;11674;52.428;13.584;2023-02-01T00:01:06;18.10;;;3.58;;
23015;SDS011;11674;52.428;13.584;2023-02-01T00:06:15;16.70;;;3.28;;
23015;SDS011;11674;52.428;13.584;2023-02-01T00:11:22;13.13;;;2.83;;
23015;SDS011;11674;52.428;13.584;2023-02-01T00:16:30;22.27;;;3.25;;
23015;SDS011;11674;52.428;13.584;2023-02-01T00:21:38;24.65;;;4.53;;
23015;SDS011;11674;52.428;13.584;2023-02-01T00:26:45;16.25;;;3.13;;
23015;SDS011;11674;52.428;13.584;2023-02-01T00:31:51;24.77;;;3.42;;
23015;SDS011;11674;52.428;13.584;2023-02-01T00:36:58;16.27;;;3.28;;
23015;SDS011;11674;52.428;13.584;2023-02-01T00:42:06;22.58;;;3.88;;
23015;SDS011;11674;52.428;13.584;2023-02-01T00:47:13;22.55;;;3.30;;
23015;SDS011;11674;52.428;13.584;2023-02-01T00:52:20;18.67;;;3.20;;
23015;SDS011;11674;52.428;13.584;2023-02-01T00:57:27;17.85;;;3.63;;
23015;SDS011;11674;52.428;13.584;2023-02-01T01:02:34;12.55;;;2.70;;
23015;SDS011;11674;52.428;13.584;2023-02-01T01:07:41;17.90;;;2.53;;
23015;SDS011;11674;52.428;13.584;2023-02-01T01:12:48;19.85;;;3.55;;
23015;SDS011;11674;52.428;13.584;2023-02-01T01:17:55;15.85;;;2.88;;
23015;SDS011;11674;52.428;13.584;2023-02-01T01:23:02;13.65;;;2.33;;
23015;SDS011;11674;52.428;13.584;2023-02-01T01:28:09;16.08;;;2.70;;
23015;SDS011;11674;52.428;13.584;2023-02-01T01:33:16;19.35;;;3.35;;
23015;SDS011;11674;52.428;13.584;2023-02-01T01:38:23;9.18;;;2.00;;
23015;SDS011;11674;52.428;13.584;2023-02-01T01:49:01;17.77;;;2.70;;
23015;SDS011;11674;52.428;13.584;2023-02-01T01:59:39;17.73;;;3.22;;
23015;SDS011;11674;52.428;13.584;2023-02-01T02:04:48;12.82;;;2.92;;
23015;SDS011;11674;52.428;13.584;2023-02-01T02:09:55;12.05;;;2.42;;
23015;SDS011;11674;52.428;13.584;2023-02-01T02:15:03;14.32;;;2.75;;
23015;SDS011;11674;52.428;13.584;2023-02-01T02:53:12;19.17;;;2.45;;
23015;SDS011;11674;52.428;13.584;2023-02-01T02:58:23;18.27;;;3.35;;
23015;SDS011;11674;52.428;13.584;2023-02-01T03:03:30;14.13;;;3.28;;
23015;SDS011;11674;52.428;13.584;2023-02-01T03:08:37;19.35;;;3.17;;
23015;SDS011;11674;52.428;13.584;2023-02-01T03:13:49;13.52;;;3.10;;
23015;SDS011;11674;52.428;13.584;2023-02-01T03:19:06;14.18;;;2.63;;
23015;SDS011;11674;52.428;13.584;2023-02-01T03:24:16;17.13;;;3.00;;
23015;SDS011;11674;52.428;13.584;2023-02-01T03:29:40;18.83;;;3.83;;
23015;SDS011;11674;52.428;13.584;2023-02-01T03:34:55;18.98;;;3.03;;
23015;SDS011;11674;52.428;13.584;2023-02-01T03:40:06;19.23;;;3.33;;
23015;SDS011;11674;52.428;13.584;2023-02-01T03:45:18;14.55;;;2.60;;
23015;SDS011;11674;52.428;13.584;2023-02-01T03:50:26;13.98;;;2.67;;
23015;SDS011;11674;52.428;13.584;2023-02-01T03:55:35;17.05;;;3.45;;
23015;SDS011;11674;52.428;13.584;2023-02-01T04:00:54;14.48;;;3.20;;
23015;SDS011;11674;52.428;13.584;2023-02-01T04:06:07;21.70;;;3.33;;
23015;SDS011;11674;52.428;13.584;2023-02-01T04:11:14;21.23;;;3.65;;
23015;SDS011;11674;52.428;13.584;2023-02-01T04:16:21;20.23;;;2.90;;
23015;SDS011;11674;52.428;13.584;2023-02-01T04:21:28;23.65;;;3.40;;
23015;SDS011;11674;52.428;13.584;2023-02-01T04:26:35;18.85;;;3.17;;
23015;SDS011;11674;52.428;13.584;2023-02-01T04:31:42;14.70;;;2.88;;
23015;SDS011;11674;52.428;13.584;2023-02-01T04:36:49;20.05;;;3.13;;
23015;SDS011;11674;52.428;13.584;2023-02-01T04:41:56;20.00;;;2.92;;
23015;SDS011;11674;52.428;13.584;2023-02-01T04:47:03;19.13;;;3.38;;
23015;SDS011;11674;52.428;13.584;2023-02-01T04:52:10;16.40;;;2.95;;
23015;SDS011;11674;52.428;13.584;2023-02-01T04:57:17;16.98;;;3.10;;
23015;SDS011;11674;52.428;13.584;2023-02-01T05:02:24;21.13;;;3.22;;
23015;SDS011;11674;52.428;13.584;2023-02-01T05:07:31;14.10;;;3.33;;
23015;SDS011;11674;52.428;13.584;2023-02-01T05:12:38;18.85;;;3.55;;
23015;SDS011;11674;52.428;13.584;2023-02-01T05:17:45;21.42;;;3.05;;
23015;SDS011;11674;52.428;13.584;2023-02-01T05:22:52;17.52;;;3.50;;
23015;SDS011;11674;52.428;13.584;2023-02-01T05:27:59;20.38;;;3.75;;
23015;SDS011;11674;52.428;13.584;2023-02-01T05:33:06;25.30;;;3.63;;
23015;SDS011;11674;52.428;13.584;2023-02-01T05:38:13;14.85;;;2.75;;
23015;SDS011;11674;52.428;13.584;2023-02-01T05:43:20;19.38;;;3.28;;
23015;SDS011;11674;52.428;13.584;2023-02-01T05:48:27;20.42;;;2.58;;
23015;SDS011;11674;52.428;13.584;2023-02-01T05:53:34;16.15;;;2.70;;
23015;SDS011;11674;52.428;13.584;2023-02-01T05:58:41;18.98;;;2.85;;
23015;SDS011;11674;52.428;13.584;2023-02-01T06:03:48;18.27;;;3.05;;
23015;SDS011;11674;52.428;13.584;2023-02-01T06:08:55;15.98;;;3.03;;
23015;SDS011;11674;52.428;13.584;2023-02-01T06:14:02;19.05;;;3.20;;
23015;SDS011;11674;52.428;13.584;2023-02-01T06:19:09;12.88;;;2.92;;
23015;SDS011;11674;52.428;13.584;2023-02-01T06:24:16;18.65;;;2.80;;
23015;SDS011;11674;52.428;13.584;2023-02-01T06:29:23;14.82;;;3.20;;
23015;SDS011;11674;52.428;13.584;2023-02-01T06:34:30;17.17;;;3.20;;
23015;SDS011;11674;52.428;13.584;2023-02-01T06:39:37;20.60;;;3.58;;
23015;SDS011;11674;52.428;13.584;2023-02-01T06:44:44;15.07;;;3.10;;
23015;SDS011;11674;52.428;13.584;2023-02-01T06:49:51;21.40;;;3.85;;
23015;SDS011;11674;52.428;13.584;2023-02-01T06:54:58;17.88;;;3.63;;
23015;SDS011;11674;52.428;13.584;2023-02-01T07:00:05;21.83;;;3.30;;
23015;SDS011;11674;52.428;13.584;2023-02-01T07:05:13;18.08;;;3.58;;
23015;SDS011;11674;52.428;13.584;2023-02-01T07:10:20;18.35;;;3.35;;
23015;SDS011;11674;52.428;13.584;2023-02-01T07:15:27;22.30;;;2.97;;
23015;SDS011;11674;52.428;13.584;2023-02-01T07:20:34;14.13;;;3.55;;
23015;SDS011;11674;52.428;13.584;2023-02-01T07:25:41;15.48;;;2.58;;
23015;SDS011;11674;52.428;13.584;2023-02-01T07:30:48;18.55;;;3.47;;
23015;SDS011;11674;52.428;13.584;2023-02-01T07:35:55;18.70;;;3.33;;
23015;SDS011;11674;52.428;13.584;2023-02-01T07:41:02;9.93;;;2.47;;
23015;SDS011;11674;52.428;13.584;2023-02-01T07:46:11;12.93;;;3.03;;
23015;SDS011;11674;52.428;13.584;2023-02-01T07:51:18;9.82;;;3.00;;
23015;SDS011;11674;52.428;13.584;2023-02-01T07:56:25;15.63;;;3.05;;
23015;SDS011;11674;52.428;13.584;2023-02-01T08:01:32;15.60;;;3.33;;
23015;SDS011;11674;52.428;13.584;2023-02-01T08:06:46;18.70;;;3.33;;
23015;SDS011;11674;52.428;13.584;2023-02-01T08:11:53;12.93;;;3.35;;
23015;SDS011;11674;52.428;13.584;2023-02-01T08:17:00;11.10;;;2.85;;
23015;SDS011;11674;52.428;13.584;2023-02-01T08:22:07;15.52;;;3.60;;
23015;SDS011;11674;52.428;13.584;2023-02-01T08:27:14;14.10;;;3.67;;
23015;SDS011;11674;52.428;13.584;2023-02-01T08:32:21;17.02;;;3.15;;
23015;SDS011;11674;52.428;13.584;2023-02-01T08:37:28;11.60;;;3.03;;
23015;SDS011;11674;52.428;13.584;2023-02-01T08:42:35;10.05;;;2.45;;
23015;SDS011;11674;52.428;13.584;2023-02-01T08:47:42;13.57;;;3.10;;
23015;SDS011;11674;52.428;13.584;2023-02-01T08:52:49;12.90;;;3.15;;
23015;SDS011;11674;52.428;13.584;2023-02-01T08:57:56;14.60;;;3.72;;
23015;SDS011;11674;52.428;13.584;2023-02-01T09:03:03;14.50;;;3.63;;
23015;SDS011;11674;52.428;13.584;2023-02-01T09:08:10;13.77;;;3.60;;
23015;SDS011;11674;52.428;13.584;2023-02-01T09:13:18;4.65;;;2.38;;
23015;SDS011;11674;52.428;13.584;2023-02-01T09:18:25;4.90;;;1.70;;
23015;SDS011;11674;52.428;13.584;2023-02-01T09:23:33;5.88;;;2.10;;
23015;SDS011;11674;52.428;13.584;2023-02-01T09:28:41;2.55;;;1.77;;
23015;SDS011;11674;52.428;13.584;2023-02-01T09:33:48;5.97;;;2.10;;
23015;SDS011;11674;52.428;13.584;2023-02-01T09:38:55;4.25;;;1.50;;
23015;SDS011;11674;52.428;13.584;2023-02-01T09:44:08;5.28;;;1.67;;
23015;SDS011;11674;52.428;13.584;2023-02-01T09:49:37;4.35;;;1.27;;
23015;SDS011;11674;52.428;13.584;2023-02-01T09:54:56;8.57;;;1.40;;
23015;SDS011;11674;52.428;13.584;2023-02-01T10:00:18;7.13;;;1.45;;
23015;SDS011;11674;52.428;13.584;2023-02-01T10:11:01;3.35;;;1.10;;
23015;SDS011;11674;52.428;13.584;2023-02-01T10:22:00;6.60;;;1.67;;
23015;SDS011;11674;52.428;13.584;2023-02-01T10:27:22;4.93;;;1.45;;
23015;SDS011;11674;52.428;13.584;2023-02-01T10:32:33;6.78;;;1.65;;
23015;SDS011;11674;52.428;13.584;2023-02-01T10:37:40;6.70;;;1.60;;
23015;SDS011;11674;52.428;13.584;2023-02-01T10:42:53;7.25;;;1.70;;
23015;SDS011;11674;52.428;13.584;2023-02-01T10:48:03;7.85;;;1.70;;
23015;SDS011;11674;52.428;13.584;2023-02-01T10:53:11;8.82;;;1.92;;
23015;SDS011;11674;52.428;13.584;2023-02-01T10:58:31;6.68;;;1.80;;
23015;SDS011;11674;52.428;13.584;2023-02-01T11:03:44;2.25;;;0.90;;
23015;SDS011;11674;52.428;13.584;2023-02-01T11:14:19;3.85;;;1.20;;
23015;SDS011;11674;52.428;13.584;2023-02-01T11:19:33;6.47;;;1.58;;
23015;SDS011;11674;52.428;13.584;2023-02-01T11:24:40;7.72;;;1.98;;
23015;SDS011;11674;52.428;13.584;2023-02-01T11:29:52;9.10;;;2.25;;
23015;SDS011;11674;52.428;13.584;2023-02-01T11:35:03;12.45;;;2.22;;
23015;SDS011;11674;52.428;13.584;2023-02-01T11:45:26;10.75;;;2.47;;
23015;SDS011;11674;52.428;13.584;2023-02-01T12:12:52;7.65;;;1.70;;
23015;SDS011;11674;52.428;13.584;2023-02-01T12:40:06;7.57;;;1.65;;
23015;SDS011;11674;52.428;13.584;2023-02-01T12:45:41;7.00;;;2.20;;
23015;SDS011;11674;52.428;13.584;2023-02-01T12:50:54;9.63;;;2.17;;
23015;SDS011;11674;52.428;13.584;2023-02-01T12:56:06;7.03;;;1.80;;
23015;SDS011;11674;52.428;13.584;2023-02-01T13:01:40;9.82;;;1.80;;
23015;SDS011;11674;52.428;13.584;2023-02-01T13:06:55;8.13;;;1.77;;
23015;SDS011;11674;52.428;13.584;2023-02-01T13:12:06;10.18;;;1.63;;
23015;SDS011;11674;52.428;13.584;2023-02-01T13:17:23;7.28;;;1.65;;
23015;SDS011;11674;52.428;13.584;2023-02-01T13:22:37;6.85;;;1.95;;
23015;SDS011;11674;52.428;13.584;2023-02-01T13:27:47;9.65;;;2.15;;
23015;SDS011;11674;52.428;13.584;2023-02-01T13:38:40;7.38;;;1.65;;
23015;SDS011;11674;52.428;13.584;2023-02-01T13:43:53;7.50;;;1.97;;
23015;SDS011;11674;52.428;13.584;2023-02-01T13:49:04;4.72;;;1.50;;
23015;SDS011;11674;52.428;13.584;2023-02-01T13:59:48;12.13;;;2.35;;
23015;SDS011;11674;52.428;13.584;2023-02-01T14:04:57;8.13;;;1.85;;
23015;SDS011;11674;52.428;13.584;2023-02-01T14:26:18;9.60;;;2.28;;
23015;SDS011;11674;52.428;13.584;2023-02-01T14:31:33;9.10;;;1.90;;
23015;SDS011;11674;52.428;13.584;2023-02-01T14:36:49;8.40;;;2.28;;
23015;SDS011;11674;52.428;13.584;2023-02-01T14:42:02;8.50;;;1.88;;
23015;SDS011;11674;52.428;13.584;2023-02-01T14:52:36;11.05;;;2.00;;
23015;SDS011;11674;52.428;13.584;2023-02-01T14:57:46;8.27;;;2.40;;
23015;SDS011;11674;52.428;13.584;2023-02-01T15:03:17;12.45;;;2.75;;
23015;SDS011;11674;52.428;13.584;2023-02-01T15:08:40;9.00;;;2.03;;
23015;SDS011;11674;52.428;13.584;2023-02-01T15:13:51;8.75;;;2.05;;
23015;SDS011;11674;52.428;13.584;2023-02-01T15:19:09;9.18;;;1.92;;
23015;SDS011;11674;52.428;13.584;2023-02-01T15:24:21;7.85;;;2.00;;
23015;SDS011;11674;52.428;13.584;2023-02-01T15:29:28;5.22;;;2.10;;
23015;SDS011;11674;52.428;13.584;2023-02-01T15:34:45;5.55;;;1.50;;
23015;SDS011;11674;52.428;13.584;2023-02-01T15:45:17;4.20;;;1.70;;
23015;SDS011;11674;52.428;13.584;2023-02-01T15:50:25;5.78;;;1.58;;
23015;SDS011;11674;52.428;13.584;2023-02-01T15:55:38;4.65;;;1.70;;
23015;SDS011;11674;52.428;13.584;2023-02-01T16:00:49;5.95;;;1.50;;
23015;SDS011;11674;52.428;13.584;2023-02-01T16:06:02;5.45;;;2.30;;
23015;SDS011;11674;52.428;13.584;2023-02-01T16:11:22;7.13;;;1.52;;
23015;SDS011;11674;52.428;13.584;2023-02-01T16:16:34;2.40;;;1.38;;
23015;SDS011;11674;52.428;13.584;2023-02-01T16:21:41;1.98;;;1.02;;
23015;SDS011;11674;52.428;13.584;2023-02-01T16:26:48;1.90;;;1.00;;
23015;SDS011;11674;52.428;13.584;2023-02-01T16:31:55;1.50;;;1.23;;
23015;SDS011;11674;52.428;13.584;2023-02-01T16:37:02;1.02;;;0.80;;
23015;SDS011;11674;52.428;13.584;2023-02-01T16:42:13;1.52;;;0.90;;
23015;SDS011;11674;52.428;13.584;2023-02-01T16:47:22;2.92;;;1.08;;
23015;SDS011;11674;52.428;13.584;2023-02-01T16:52:29;1.40;;;0.90;;
23015;SDS011;11674;52.428;13.584;2023-02-01T16:57:36;2.88;;;0.90;;
23015;SDS011;11674;52.428;13.584;2023-02-01T17:02:43;1.25;;;0.75;;
23015;SDS011;11674;52.428;13.584;2023-02-01T17:07:50;2.25;;;0.90;;
23015;SDS011;11674;52.428;13.584;2023-02-01T17:12:58;2.40;;;0.80;;
23015;SDS011;11674;52.428;13.584;2023-02-01T17:18:05;2.50;;;1.38;;
23015;SDS011;11674;52.428;13.584;2023-02-01T17:23:18;2.10;;;1.13;;
23015;SDS011;11674;52.428;13.584;2023-02-01T17:28:26;4.22;;;1.00;;
23015;SDS011;11674;52.428;13.584;2023-02-01T17:33:34;4.95;;;1.42;;
23015;SDS011;11674;52.428;13.584;2023-02-01T17:38:42;5.90;;;1.10;;
23015;SDS011;11674;52.428;13.584;2023-02-01T17:43:50;4.38;;;1.40;;
23015;SDS011;11674;52.428;13.584;2023-02-01T17:48:58;3.85;;;1.23;;
23015;SDS011;11674;52.428;13.584;2023-02-01T17:54:05;2.40;;;1.08;;
23015;SDS011;11674;52.428;13.584;2023-02-01T17:59:15;5.68;;;1.30;;
23015;SDS011;11674;52.428;13.584;2023-02-01T18:04:22;3.78;;;1.10;;
23015;SDS011;11674;52.428;13.584;2023-02-01T18:09:29;7.32;;;1.20;;
23015;SDS011;11674;52.428;13.584;2023-02-01T18:14:36;6.07;;;1.13;;
23015;SDS011;11674;52.428;13.584;2023-02-01T18:19:43;3.75;;;1.45;;
23015;SDS011;11674;52.428;13.584;2023-02-01T18:24:50;2.78;;;1.20;;
23015;SDS011;11674;52.428;13.584;2023-02-01T18:29:57;6.28;;;1.65;;
23015;SDS011;11674;52.428;13.584;2023-02-01T18:35:26;4.22;;;1.08;;
23015;SDS011;11674;52.428;13.584;2023-02-01T18:40:38;5.32;;;1.55;;
23015;SDS011;11674;52.428;13.584;2023-02-01T18:46:01;6.25;;;1.55;;
23015;SDS011;11674;52.428;13.584;2023-02-01T18:51:09;8.32;;;1.77;;
23015;SDS011;11674;52.428;13.584;2023-02-01T18:56:22;8.25;;;1.52;;
23015;SDS011;11674;52.428;13.584;2023-02-01T19:01:29;9.05;;;1.65;;
23015;SDS011;11674;52.428;13.584;2023-02-01T19:06:36;8.10;;;1.88;;
23015;SDS011;11674;52.428;13.584;2023-02-01T19:11:43;9.77;;;1.70;;
23015;SDS011;11674;52.428;13.584;2023-02-01T19:16:50;4.63;;;1.48;;
23015;SDS011;11674;52.428;13.584;2023-02-01T19:21:57;8.07;;;1.42;;
23015;SDS011;11674;52.428;13.584;2023-02-01T19:27:04;9.77;;;1.58;;
23015;SDS011;11674;52.428;13.584;2023-02-01T19:32:12;10.00;;;1.65;;
23015;SDS011;11674;52.428;13.584;2023-02-01T19:37:20;9.13;;;1.70;;
23015;SDS011;11674;52.428;13.584;2023-02-01T19:42:27;13.38;;;1.60;;
23015;SDS011;11674;52.428;13.584;2023-02-01T19:47:34;5.50;;;1.77;;
23015;SDS011;11674;52.428;13.584;2023-02-01T19:52:41;8.10;;;1.70;;
23015;SDS011;11674;52.428;13.584;2023-02-01T19:57:48;9.55;;;2.00;;
23015;SDS011;11674;52.428;13.584;2023-02-01T20:02:55;11.50;;;1.88;;
23015;SDS011;11674;52.428;13.584;2023-02-01T20:08:02;13.95;;;2.22;;
23015;SDS011;11674;52.428;13.584;2023-02-01T20:13:09;7.28;;;1.65;;
23015;SDS011;11674;52.428;13.584;2023-02-01T20:18:16;11.65;;;1.95;;
23015;SDS011;11674;52.428;13.584;2023-02-01T20:23:23;11.88;;;1.55;;
23015;SDS011;11674;52.428;13.584;2023-02-01T20:28:31;11.38;;;2.47;;
23015;SDS011;11674;52.428;13.584;2023-02-01T20:33:39;25.33;;;9.68;;
23015;SDS011;11674;52.428;13.584;2023-02-01T20:38:46;24.08;;;7.20;;
23015;SDS011;11674;52.428;13.584;2023-02-01T20:43:53;11.43;;;1.90;;
23015;SDS011;11674;52.428;13.584;2023-02-01T20:49:01;7.60;;;1.90;;
23015;SDS011;11674;52.428;13.584;2023-02-01T20:54:08;8.82;;;1.85;;
23015;SDS011;11674;52.428;13.584;2023-02-01T20:59:15;10.13;;;2.25;;
23015;SDS011;11674;52.428;13.584;2023-02-01T21:04:23;7.60;;;1.42;;
23015;SDS011;11674;52.428;13.584;2023-02-01T21:09:31;12.48;;;2.10;;
23015;SDS011;11674;52.428;13.584;2023-02-01T21:14:38;8.15;;;1.85;;
23015;SDS011;11674;52.428;13.584;2023-02-01T21:19:45;10.30;;;2.30;;
23015;SDS011;11674;52.428;13.584;2023-02-01T21:24:52;13.27;;;2.30;;
23015;SDS011;11674;52.428;13.584;2023-02-01T21:29:59;9.13;;;1.73;;
23015;SDS011;11674;52.428;13.584;2023-02-01T21:35:06;6.80;;;1.98;;
23015;SDS011;11674;52.428;13.584;2023-02-01T21:40:13;12.20;;;1.60;;
23015;SDS011;11674;52.428;13.584;2023-02-01T21:45:20;19.02;;;2.40;;
23015;SDS011;11674;52.428;13.584;2023-02-01T21:50:27;18.15;;;2.30;;
23015;SDS011;11674;52.428;13.584;2023-02-01T21:55:34;12.45;;;2.38;;
23015;SDS011;11674;52.428;13.584;2023-02-01T22:00:41;7.75;;;1.90;;
23015;SDS011;11674;52.428;13.584;2023-02-01T22:05:48;7.80;;;2.10;;
23015;SDS011;11674;52.428;13.584;2023-02-01T22:10:56;9.60;;;2.15;;
23015;SDS011;11674;52.428;13.584;2023-02-01T22:16:03;10.20;;;2.15;;
23015;SDS011;11674;52.428;13.584;2023-02-01T22:21:10;11.43;;;2.03;;
23015;SDS011;11674;52.428;13.584;2023-02-01T22:26:17;11.00;;;2.33;;
23015;SDS011;11674;52.428;13.584;2023-02-01T22:31:24;7.72;;;1.55;;
23015;SDS011;11674;52.428;13.584;2023-02-01T22:36:31;6.55;;;1.83;;
23015;SDS011;11674;52.428;13.584;2023-02-01T22:41:38;7.65;;;2.33;;
23015;SDS011;11674;52.428;13.584;2023-02-01T22:46:45;14.35;;;2.10;;
23015;SDS011;11674;52.428;13.584;2023-02-01T22:51:52;8.32;;;2.00;;
23015;SDS011;11674;52.428;13.584;2023-02-01T22:57:02;11.25;;;1.67;;
23015;SDS011;11674;52.428;13.584;2023-02-01T23:02:09;8.93;;;1.90;;
23015;SDS011;11674;52.428;13.584;2023-02-01T23:07:16;7.65;;;2.00;;
23015;SDS011;11674;52.428;13.584;2023-02-01T23:12:23;10.38;;;1.80;;
23015;SDS011;11674;52.428;13.584;2023-02-01T23:17:30;16.90;;;3.17;;
23015;SDS011;11674;52.428;13.584;2023-02-01T23:22:39;9.43;;;1.92;;
23015;SDS011;11674;52.428;13.584;2023-02-01T23:27:49;12.07;;;1.98;;
23015;SDS011;11674;52.428;13.584;2023-02-01T23:32:56;18.48;;;2.60;;
23015;SDS011;11674;52.428;13.584;2023-02-01T23:38:03;10.13;;;2.75;;
23015;SDS011;11674;52.428;13.584;2023-02-01T23:43:10;17.40;;;2.80;;
23015;SDS011;11674;52.428;13.584;2023-02-01T23:48:17;12.60;;;2.28;;
23015;SDS011;11674;52.428;13.584;2023-02-01T23:53:24;16.15;;;2.38;;
23015;SDS011;11674;52.428;13.584;2023-02-01T23:58:31;13.35;;;2.67;;
